createdAt,value
2023-04-11T00:02:14.313Z,17.00
2023-04-11T00:04:42.045Z,17.00
2023-04-11T00:07:09.686Z,16.70
2023-04-11T00:09:37.460Z,16.90
2023-04-11T00:12:05.181Z,16.70
2023-04-11T00:14:34.377Z,16.60
2023-04-11T00:17:01.942Z,16.60
2023-04-11T00:19:30.734Z,16.60
2023-04-11T00:21:58.402Z,16.70
2023-04-11T00:24:27.207Z,16.50
2023-04-11T00:26:54.929Z,16.50
2023-04-11T00:29:22.489Z,16.60
2023-04-11T00:31:50.094Z,16.40
2023-04-11T00:34:18.450Z,16.40
2023-04-11T00:36:47.098Z,16.50
2023-04-11T00:39:18.817Z,16.50
2023-04-11T00:41:47.074Z,16.50
2023-04-11T00:44:15.436Z,16.40
2023-04-11T00:46:46.009Z,16.30
2023-04-11T00:49:13.868Z,16.10
2023-04-11T00:51:41.329Z,16.30
2023-04-11T00:54:10.381Z,16.20
2023-04-11T00:56:38.207Z,16.00
2023-04-11T00:59:06.518Z,16.20
2023-04-11T01:01:36.614Z,16.10
2023-04-11T01:04:05.728Z,16.10
2023-04-11T01:06:33.733Z,15.90
2023-04-11T01:09:01.366Z,16.00
2023-04-11T01:11:29.408Z,16.10
2023-04-11T01:13:56.974Z,16.10
2023-04-11T01:16:24.708Z,16.00
2023-04-11T01:18:52.227Z,15.80
2023-04-11T01:21:20.857Z,15.80
2023-04-11T01:23:52.683Z,15.90
2023-04-11T01:26:20.847Z,15.90
2023-04-11T01:28:48.453Z,15.70
2023-04-11T01:31:16.271Z,15.60
2023-04-11T01:33:43.949Z,15.90
2023-04-11T01:36:12.431Z,15.80
2023-04-11T01:38:39.985Z,15.50
2023-04-11T01:41:09.914Z,15.50
2023-04-11T01:43:37.947Z,15.70
2023-04-11T01:46:05.700Z,15.40
2023-04-11T01:48:36.985Z,15.30
2023-04-11T01:51:07.272Z,15.30
2023-04-11T01:53:34.804Z,15.30
2023-04-11T01:56:02.299Z,15.30
2023-04-11T01:58:30.043Z,15.50
2023-04-11T02:00:58.011Z,15.50
2023-04-11T02:03:25.631Z,15.50
2023-04-11T02:05:53.447Z,15.40
2023-04-11T02:08:20.984Z,15.30
2023-04-11T02:10:48.795Z,15.40
2023-04-11T02:13:16.366Z,15.50
2023-04-11T02:15:43.947Z,15.50
2023-04-11T02:18:11.679Z,15.20
2023-04-11T02:20:40.603Z,15.20
2023-04-11T02:23:08.052Z,15.10
2023-04-11T02:25:35.651Z,15.10
2023-04-11T02:28:08.018Z,15.10
2023-04-11T02:30:35.942Z,15.00
2023-04-11T02:33:04.113Z,15.00
2023-04-11T02:35:31.666Z,15.20
2023-04-11T02:38:01.006Z,15.20
2023-04-11T02:40:30.628Z,14.90
2023-04-11T02:42:58.084Z,14.80
2023-04-11T02:45:25.525Z,15.00
2023-04-11T02:47:53.402Z,15.00
2023-04-11T02:50:21.082Z,14.70
2023-04-11T02:52:51.695Z,14.70
2023-04-11T02:55:24.146Z,14.70
2023-04-11T02:57:59.558Z,14.70
2023-04-11T03:00:27.083Z,14.70
2023-04-11T03:03:02.708Z,14.70
2023-04-11T03:05:35.249Z,14.60
2023-04-11T03:08:03.605Z,14.40
2023-04-11T03:10:32.699Z,14.80
2023-04-11T03:13:01.944Z,14.50
2023-04-11T03:15:32.368Z,14.50
2023-04-11T03:18:04.491Z,14.50
2023-04-11T03:20:33.335Z,14.70
2023-04-11T03:23:01.024Z,14.60
2023-04-11T03:25:29.060Z,14.60
2023-04-11T03:27:57.135Z,14.40
2023-04-11T03:30:24.711Z,14.40
2023-04-11T03:32:53.128Z,14.40
2023-04-11T03:35:21.447Z,14.40
2023-04-11T03:37:50.857Z,14.30
2023-04-11T03:40:19.738Z,14.50
2023-04-11T03:42:52.743Z,14.40
2023-04-11T03:45:25.221Z,14.40
2023-04-11T03:47:54.653Z,14.20
2023-04-11T03:50:26.200Z,14.20
2023-04-11T03:52:58.803Z,14.10
2023-04-11T03:55:26.673Z,14.40
2023-04-11T03:57:56.695Z,14.10
2023-04-11T04:00:24.430Z,14.10
2023-04-11T04:03:04.315Z,14.10
2023-04-11T04:05:32.770Z,14.30
2023-04-11T04:08:00.961Z,14.30
2023-04-11T04:10:47.095Z,14.10
2023-04-11T04:13:15.328Z,14.30
2023-04-11T04:16:03.846Z,14.30
2023-04-11T04:18:33.231Z,14.10
2023-04-11T04:21:01.565Z,14.00
2023-04-11T04:23:32.456Z,14.00
2023-04-11T04:26:25.094Z,14.00
2023-04-11T04:29:12.798Z,14.00
2023-04-11T04:31:52.968Z,14.00
2023-04-11T04:34:29.191Z,14.20
2023-04-11T04:36:59.739Z,14.10
2023-04-11T04:39:38.209Z,14.10
2023-04-11T04:42:07.291Z,14.10
2023-04-11T04:44:39.112Z,13.50
2023-04-11T04:47:15.536Z,14.00
2023-04-11T04:49:44.061Z,13.80
2023-04-11T04:52:13.349Z,13.80
2023-04-11T04:54:41.005Z,13.90
2023-04-11T04:57:08.650Z,13.90
2023-04-11T04:59:36.269Z,13.70
2023-04-11T05:02:10.772Z,13.70
2023-04-11T05:04:38.746Z,13.90
2023-04-11T05:07:06.440Z,13.70
2023-04-11T06:15:50.422Z,14.40
2023-04-11T06:24:59.643Z,14.80
2023-04-11T06:27:33.900Z,14.90
2023-04-11T07:31:45.119Z,21.40
2023-04-11T07:34:12.805Z,21.70
2023-04-11T07:36:41.700Z,22.40
2023-04-11T07:39:12.084Z,22.70
2023-04-11T07:41:39.528Z,23.20
2023-04-11T07:44:07.547Z,23.40
2023-04-11T07:46:35.443Z,23.30
2023-04-11T07:49:02.778Z,24.00
2023-04-11T07:51:31.196Z,24.30
2023-04-11T07:53:58.678Z,23.80
2023-04-11T07:56:26.654Z,24.40
2023-04-11T07:58:54.259Z,24.40
2023-04-11T08:01:23.897Z,24.30
2023-04-11T08:03:56.024Z,24.40
2023-04-11T08:06:23.962Z,25.20
2023-04-11T08:08:51.682Z,24.70
2023-04-11T08:11:21.725Z,25.10
2023-04-11T08:13:49.991Z,24.50
2023-04-11T08:16:17.422Z,24.60
2023-04-11T08:18:45.737Z,24.60
2023-04-11T08:21:13.370Z,24.30
2023-04-11T08:23:42.809Z,23.70
2023-04-11T08:26:11.868Z,23.40
2023-04-11T08:28:42.635Z,23.10
2023-04-11T08:31:12.589Z,22.90
2023-04-11T08:33:40.384Z,22.80
2023-04-11T08:36:10.693Z,22.70
2023-04-11T08:38:40.699Z,22.10
2023-04-11T08:41:08.471Z,22.20
2023-04-11T08:43:36.967Z,22.10
2023-04-11T08:46:05.604Z,22.00
2023-04-11T08:48:33.802Z,21.40
2023-04-11T08:51:01.481Z,21.80
2023-04-11T08:53:30.475Z,21.90
2023-04-11T09:44:14.089Z,20.40
2023-04-11T09:49:48.784Z,20.60
2023-04-11T09:52:21.330Z,20.70
2023-04-11T09:54:52.300Z,20.70
2023-04-11T14:20:58.270Z,20.00
2023-04-11T14:23:26.677Z,20.30
2023-04-11T14:25:54.191Z,20.10
2023-04-11T14:28:21.953Z,20.20
2023-04-11T14:30:49.441Z,20.50
2023-04-11T14:33:16.902Z,20.40
2023-04-11T14:35:47.029Z,20.30
2023-04-11T14:38:15.829Z,20.60
2023-04-11T14:40:44.406Z,20.60
2023-04-11T14:43:11.947Z,20.60
2023-04-11T14:45:39.536Z,20.40
2023-04-11T14:48:07.097Z,20.50
2023-04-11T14:50:34.793Z,20.50
2023-04-11T14:53:03.030Z,20.70
2023-04-11T14:55:30.795Z,20.60
2023-04-11T14:57:58.480Z,20.60
2023-04-11T15:00:27.085Z,20.50
2023-04-11T15:02:57.316Z,20.40
2023-04-11T15:05:26.871Z,20.40
2023-04-11T15:07:54.582Z,20.50
2023-04-11T15:10:24.435Z,20.30
2023-04-11T15:12:53.121Z,20.30
2023-04-11T15:15:20.604Z,19.90
2023-04-11T15:17:49.991Z,20.20
2023-04-11T15:20:17.641Z,20.20
2023-04-11T15:22:46.228Z,20.10
2023-04-11T15:25:16.148Z,20.20
2023-04-11T15:27:44.040Z,20.10
2023-04-11T15:30:12.324Z,20.10
2023-04-11T15:32:43.797Z,19.90
2023-04-11T15:35:12.306Z,20.00
2023-04-11T15:37:41.131Z,19.80
2023-04-11T15:40:12.561Z,19.90
2023-04-11T15:42:44.079Z,19.90
2023-04-11T15:45:12.467Z,20.00
2023-04-11T15:47:41.117Z,19.90
2023-04-11T15:50:09.463Z,19.80
2023-04-11T15:52:37.218Z,19.80
2023-04-11T15:55:05.404Z,19.70
2023-04-11T15:57:33.055Z,19.70
2023-04-11T16:00:01.282Z,19.80
2023-04-11T16:02:45.378Z,19.80
2023-04-11T16:05:14.398Z,19.60
2023-04-11T16:07:43.615Z,19.80
2023-04-11T16:10:11.373Z,19.60
2023-04-11T16:12:39.129Z,19.70
2023-04-11T16:15:07.324Z,19.70
2023-04-11T16:17:34.740Z,19.70
2023-04-11T16:20:06.366Z,19.90
2023-04-11T16:22:35.345Z,19.70
2023-04-11T16:25:06.935Z,19.80
2023-04-11T16:27:34.358Z,19.60
2023-04-11T16:30:05.076Z,19.80
2023-04-11T16:32:33.234Z,19.50
2023-04-11T16:35:01.218Z,19.50
2023-04-11T16:37:29.089Z,19.50
2023-04-11T16:39:58.011Z,19.60
2023-04-11T16:42:25.764Z,19.40
2023-04-11T16:44:53.681Z,19.30
2023-04-11T16:47:26.191Z,19.50
2023-04-11T16:49:53.829Z,19.40
2023-04-11T16:52:21.467Z,19.40
2023-04-11T16:54:49.056Z,19.20
2023-04-11T16:57:16.618Z,19.20
2023-04-11T16:59:44.487Z,19.10
2023-04-11T17:02:11.968Z,19.30
2023-04-11T17:04:39.531Z,19.10
2023-04-11T17:07:07.047Z,19.20
2023-04-11T17:09:34.550Z,19.10
2023-04-11T17:12:03.352Z,19.00
2023-04-11T17:14:33.914Z,19.00
2023-04-11T17:17:04.257Z,18.90
2023-04-11T17:19:32.193Z,18.60
2023-04-11T17:22:00.323Z,18.60
2023-04-11T17:24:29.227Z,18.70
2023-04-11T17:26:57.304Z,18.60
2023-04-11T17:29:25.213Z,18.50
2023-04-11T17:31:53.105Z,18.60
2023-04-11T17:34:20.760Z,18.70
2023-04-11T17:36:48.611Z,18.70
2023-04-11T17:39:19.770Z,18.50
2023-04-11T17:41:48.468Z,18.60
2023-04-11T17:44:16.284Z,18.60
2023-04-11T17:46:44.262Z,18.50
2023-04-11T17:49:12.066Z,18.40
2023-04-11T17:51:48.656Z,18.40
2023-04-11T17:54:17.145Z,18.40
2023-04-11T17:56:45.465Z,18.10
2023-04-11T17:59:13.657Z,18.20
2023-04-11T18:01:42.811Z,18.20
2023-04-11T18:04:12.266Z,18.00
2023-04-11T18:06:46.089Z,18.10
2023-04-11T18:09:15.997Z,17.90
2023-04-11T18:11:44.169Z,18.10
2023-04-11T18:14:12.242Z,18.10
2023-04-11T18:23:10.576Z,17.80
2023-04-11T20:16:43.495Z,15.80
2023-04-11T20:20:58.583Z,15.80
2023-04-11T22:03:31.964Z,15.00
2023-04-11T22:06:01.069Z,14.70
2023-04-11T22:12:45.960Z,14.60
2023-04-11T22:15:18.725Z,14.90
2023-04-11T22:18:14.469Z,14.60
2023-04-11T22:20:46.240Z,14.70
2023-04-11T22:23:19.245Z,14.80
2023-04-11T22:25:58.099Z,14.60
2023-04-11T22:28:34.390Z,14.80
2023-04-11T22:31:03.528Z,14.80
2023-04-11T22:33:33.438Z,14.80
2023-04-11T22:36:02.331Z,15.00
2023-04-11T22:38:32.823Z,14.60
2023-04-11T22:41:02.197Z,15.00
2023-04-11T22:43:33.579Z,14.80
2023-04-11T22:46:02.725Z,14.80
2023-04-11T22:48:31.673Z,14.80
2023-04-11T22:51:02.918Z,14.80
2023-04-11T22:53:32.478Z,14.80
2023-04-11T22:56:03.025Z,14.90
2023-04-11T22:58:33.262Z,15.00
2023-04-11T23:01:16.558Z,14.80
2023-04-11T23:03:53.306Z,15.00
2023-04-11T23:06:23.975Z,15.00
2023-04-11T23:08:54.123Z,15.00
2023-04-11T23:11:25.351Z,14.80
2023-04-11T23:13:54.909Z,15.00
2023-04-11T23:16:26.219Z,14.50
2023-04-11T23:18:56.368Z,14.70
2023-04-11T23:21:27.098Z,14.70
2023-04-11T23:24:00.022Z,14.90
2023-04-11T23:26:29.997Z,14.60
2023-04-11T23:28:58.255Z,14.30
2023-04-11T23:36:02.186Z,14.50
2023-04-11T23:38:32.169Z,14.30
2023-04-11T23:41:00.786Z,14.50
2023-04-11T23:43:30.420Z,14.50
2023-04-11T23:46:02.003Z,14.40
2023-04-11T23:48:30.816Z,14.20
2023-04-11T23:51:33.675Z,14.50
2023-04-11T23:54:03.944Z,14.00
